sensor_id;sensor_type;location;lat;lon;timestamp;P1;durP1;ratioP1;P2;durP2;ratioP2
17985;SDS011;9118;48.122;11.546;2023-02-17T00:02:12;9.97;;;6.13;;
17985;SDS011;9118;48.122;11.546;2023-02-17T00:04:41;8.07;;;5.53;;
17985;SDS011;9118;48.122;11.546;2023-02-17T00:07:19;8.23;;;5.37;;
17985;SDS011;9118;48.122;11.546;2023-02-17T00:09:46;11.97;;;6.87;;
17985;SDS011;9118;48.122;11.546;2023-02-17T00:12:14;13.63;;;6.90;;
17985;SDS011;9118;48.122;11.546;2023-02-17T00:14:43;8.73;;;6.00;;
17985;SDS011;9118;48.122;11.546;2023-02-17T00:17:10;13.17;;;6.67;;
17985;SDS011;9118;48.122;11.546;2023-02-17T00:19:38;15.13;;;6.23;;
17985;SDS011;9118;48.122;11.546;2023-02-17T00:22:24;9.17;;;6.00;;
17985;SDS011;9118;48.122;11.546;2023-02-17T00:25:06;12.57;;;7.07;;
17985;SDS011;9118;48.122;11.546;2023-02-17T00:27:34;9.47;;;5.67;;
17985;SDS011;9118;48.122;11.546;2023-02-17T00:30:16;12.67;;;5.83;;
17985;SDS011;9118;48.122;11.546;2023-02-17T00:32:56;11.97;;;7.53;;
17985;SDS011;9118;48.122;11.546;2023-02-17T00:35:41;9.57;;;5.93;;
17985;SDS011;9118;48.122;11.546;2023-02-17T00:38:11;8.97;;;5.70;;
17985;SDS011;9118;48.122;11.546;2023-02-17T00:40:38;9.70;;;5.77;;
17985;SDS011;9118;48.122;11.546;2023-02-17T00:43:06;7.93;;;5.57;;
17985;SDS011;9118;48.122;11.546;2023-02-17T00:45:34;12.10;;;5.83;;
17985;SDS011;9118;48.122;11.546;2023-02-17T00:48:19;14.83;;;6.83;;
17985;SDS011;9118;48.122;11.546;2023-02-17T00:50:48;14.00;;;7.57;;
17985;SDS011;9118;48.122;11.546;2023-02-17T00:53:17;17.00;;;9.33;;
17985;SDS011;9118;48.122;11.546;2023-02-17T00:55:44;33.97;;;16.27;;
17985;SDS011;9118;48.122;11.546;2023-02-17T00:58:14;18.37;;;9.53;;
17985;SDS011;9118;48.122;11.546;2023-02-17T01:00:42;12.93;;;7.67;;
17985;SDS011;9118;48.122;11.546;2023-02-17T01:03:11;9.17;;;6.23;;
17985;SDS011;9118;48.122;11.546;2023-02-17T01:05:39;12.17;;;7.17;;
17985;SDS011;9118;48.122;11.546;2023-02-17T01:08:07;9.90;;;5.93;;
17985;SDS011;9118;48.122;11.546;2023-02-17T01:10:37;8.80;;;6.20;;
17985;SDS011;9118;48.122;11.546;2023-02-17T01:13:04;10.97;;;6.13;;
17985;SDS011;9118;48.122;11.546;2023-02-17T01:15:54;9.53;;;5.60;;
17985;SDS011;9118;48.122;11.546;2023-02-17T01:18:22;9.70;;;5.83;;
17985;SDS011;9118;48.122;11.546;2023-02-17T01:20:50;10.40;;;6.10;;
17985;SDS011;9118;48.122;11.546;2023-02-17T01:23:25;11.03;;;6.23;;
17985;SDS011;9118;48.122;11.546;2023-02-17T01:25:54;11.07;;;5.87;;
17985;SDS011;9118;48.122;11.546;2023-02-17T01:28:21;9.77;;;5.77;;
17985;SDS011;9118;48.122;11.546;2023-02-17T01:30:49;16.50;;;6.27;;
17985;SDS011;9118;48.122;11.546;2023-02-17T01:33:16;9.93;;;5.87;;
17985;SDS011;9118;48.122;11.546;2023-02-17T01:35:43;8.87;;;5.93;;
17985;SDS011;9118;48.122;11.546;2023-02-17T01:38:11;7.87;;;5.83;;
17985;SDS011;9118;48.122;11.546;2023-02-17T01:40:44;9.33;;;5.53;;
17985;SDS011;9118;48.122;11.546;2023-02-17T01:43:14;11.83;;;5.80;;
17985;SDS011;9118;48.122;11.546;2023-02-17T01:45:44;11.00;;;5.90;;
17985;SDS011;9118;48.122;11.546;2023-02-17T01:48:20;9.90;;;6.17;;
17985;SDS011;9118;48.122;11.546;2023-02-17T01:50:49;8.63;;;5.63;;
17985;SDS011;9118;48.122;11.546;2023-02-17T01:53:22;9.43;;;5.77;;
17985;SDS011;9118;48.122;11.546;2023-02-17T01:56:00;9.30;;;5.33;;
17985;SDS011;9118;48.122;11.546;2023-02-17T01:58:38;11.73;;;5.33;;
17985;SDS011;9118;48.122;11.546;2023-02-17T02:01:09;11.87;;;4.97;;
17985;SDS011;9118;48.122;11.546;2023-02-17T02:03:45;9.67;;;5.30;;
17985;SDS011;9118;48.122;11.546;2023-02-17T02:06:32;9.50;;;5.43;;
17985;SDS011;9118;48.122;11.546;2023-02-17T02:09:02;9.17;;;5.57;;
17985;SDS011;9118;48.122;11.546;2023-02-17T02:11:33;10.17;;;5.50;;
17985;SDS011;9118;48.122;11.546;2023-02-17T02:14:38;9.60;;;5.60;;
17985;SDS011;9118;48.122;11.546;2023-02-17T02:17:16;7.63;;;5.20;;
17985;SDS011;9118;48.122;11.546;2023-02-17T02:23:24;7.47;;;5.13;;
17985;SDS011;9118;48.122;11.546;2023-02-17T02:26:44;9.93;;;5.30;;
17985;SDS011;9118;48.122;11.546;2023-02-17T02:36:12;9.67;;;5.50;;
17985;SDS011;9118;48.122;11.546;2023-02-17T02:38:46;8.97;;;5.27;;
17985;SDS011;9118;48.122;11.546;2023-02-17T02:41:31;7.10;;;4.80;;
17985;SDS011;9118;48.122;11.546;2023-02-17T02:44:02;7.83;;;4.90;;
17985;SDS011;9118;48.122;11.546;2023-02-17T02:46:31;7.30;;;5.30;;
17985;SDS011;9118;48.122;11.546;2023-02-17T02:49:00;10.43;;;5.90;;
17985;SDS011;9118;48.122;11.546;2023-02-17T02:51:36;6.03;;;4.73;;
17985;SDS011;9118;48.122;11.546;2023-02-17T02:54:14;8.10;;;4.97;;
17985;SDS011;9118;48.122;11.546;2023-02-17T02:56:51;8.50;;;5.20;;
17985;SDS011;9118;48.122;11.546;2023-02-17T02:59:39;7.43;;;5.07;;
17985;SDS011;9118;48.122;11.546;2023-02-17T03:02:14;8.57;;;4.90;;
17985;SDS011;9118;48.122;11.546;2023-02-17T03:07:39;7.40;;;5.07;;
17985;SDS011;9118;48.122;11.546;2023-02-17T03:10:10;8.20;;;5.20;;
17985;SDS011;9118;48.122;11.546;2023-02-17T03:12:38;9.30;;;5.37;;
17985;SDS011;9118;48.122;11.546;2023-02-17T03:15:08;9.07;;;4.87;;
17985;SDS011;9118;48.122;11.546;2023-02-17T03:17:40;7.83;;;4.90;;
17985;SDS011;9118;48.122;11.546;2023-02-17T03:20:09;11.13;;;4.87;;
17985;SDS011;9118;48.122;11.546;2023-02-17T03:22:38;8.67;;;5.57;;
17985;SDS011;9118;48.122;11.546;2023-02-17T03:25:08;9.77;;;5.20;;
17985;SDS011;9118;48.122;11.546;2023-02-17T03:27:36;8.37;;;5.20;;
17985;SDS011;9118;48.122;11.546;2023-02-17T03:30:03;8.87;;;5.30;;
17985;SDS011;9118;48.122;11.546;2023-02-17T03:32:30;6.80;;;4.80;;
17985;SDS011;9118;48.122;11.546;2023-02-17T03:34:58;7.17;;;4.47;;
17985;SDS011;9118;48.122;11.546;2023-02-17T03:37:27;7.67;;;5.20;;
17985;SDS011;9118;48.122;11.546;2023-02-17T03:39:54;6.70;;;5.07;;
17985;SDS011;9118;48.122;11.546;2023-02-17T03:42:21;6.83;;;4.90;;
17985;SDS011;9118;48.122;11.546;2023-02-17T03:44:48;9.77;;;4.60;;
17985;SDS011;9118;48.122;11.546;2023-02-17T03:47:15;6.47;;;4.90;;
17985;SDS011;9118;48.122;11.546;2023-02-17T03:49:43;7.83;;;4.60;;
17985;SDS011;9118;48.122;11.546;2023-02-17T03:52:10;7.63;;;4.60;;
17985;SDS011;9118;48.122;11.546;2023-02-17T03:54:39;7.33;;;4.53;;
17985;SDS011;9118;48.122;11.546;2023-02-17T03:57:06;7.20;;;4.20;;
17985;SDS011;9118;48.122;11.546;2023-02-17T03:59:33;6.63;;;4.60;;
17985;SDS011;9118;48.122;11.546;2023-02-17T04:02:00;6.20;;;4.63;;
17985;SDS011;9118;48.122;11.546;2023-02-17T04:04:28;7.97;;;4.60;;
17985;SDS011;9118;48.122;11.546;2023-02-17T04:06:55;8.27;;;4.63;;
17985;SDS011;9118;48.122;11.546;2023-02-17T04:09:22;7.53;;;4.33;;
17985;SDS011;9118;48.122;11.546;2023-02-17T04:11:51;6.70;;;4.93;;
17985;SDS011;9118;48.122;11.546;2023-02-17T04:14:20;7.07;;;4.20;;
17985;SDS011;9118;48.122;11.546;2023-02-17T04:16:47;8.30;;;4.13;;
17985;SDS011;9118;48.122;11.546;2023-02-17T04:19:14;8.50;;;4.20;;
17985;SDS011;9118;48.122;11.546;2023-02-17T04:21:41;7.60;;;4.23;;
17985;SDS011;9118;48.122;11.546;2023-02-17T04:24:09;5.50;;;4.23;;
17985;SDS011;9118;48.122;11.546;2023-02-17T04:26:36;10.77;;;4.40;;
17985;SDS011;9118;48.122;11.546;2023-02-17T04:31:48;7.07;;;4.03;;
17985;SDS011;9118;48.122;11.546;2023-02-17T04:34:15;4.63;;;3.90;;
17985;SDS011;9118;48.122;11.546;2023-02-17T04:36:45;6.93;;;4.03;;
17985;SDS011;9118;48.122;11.546;2023-02-17T04:39:12;5.60;;;4.00;;
17985;SDS011;9118;48.122;11.546;2023-02-17T04:41:41;7.53;;;4.30;;
17985;SDS011;9118;48.122;11.546;2023-02-17T04:44:08;6.63;;;3.87;;
17985;SDS011;9118;48.122;11.546;2023-02-17T04:46:37;4.57;;;3.80;;
17985;SDS011;9118;48.122;11.546;2023-02-17T04:49:05;6.07;;;3.93;;
17985;SDS011;9118;48.122;11.546;2023-02-17T04:51:33;5.60;;;4.17;;
17985;SDS011;9118;48.122;11.546;2023-02-17T04:54:00;11.37;;;4.57;;
17985;SDS011;9118;48.122;11.546;2023-02-17T04:56:27;5.37;;;3.83;;
17985;SDS011;9118;48.122;11.546;2023-02-17T04:58:54;6.40;;;4.13;;
17985;SDS011;9118;48.122;11.546;2023-02-17T05:01:22;8.20;;;4.53;;
17985;SDS011;9118;48.122;11.546;2023-02-17T05:03:51;8.63;;;4.23;;
17985;SDS011;9118;48.122;11.546;2023-02-17T05:06:19;7.40;;;4.30;;
17985;SDS011;9118;48.122;11.546;2023-02-17T05:08:46;7.23;;;4.60;;
17985;SDS011;9118;48.122;11.546;2023-02-17T05:11:14;6.30;;;3.97;;
17985;SDS011;9118;48.122;11.546;2023-02-17T05:13:42;7.17;;;3.70;;
17985;SDS011;9118;48.122;11.546;2023-02-17T05:16:10;5.57;;;4.20;;
17985;SDS011;9118;48.122;11.546;2023-02-17T05:18:41;6.57;;;3.80;;
17985;SDS011;9118;48.122;11.546;2023-02-17T05:21:09;7.63;;;4.13;;
17985;SDS011;9118;48.122;11.546;2023-02-17T05:23:37;6.00;;;3.80;;
17985;SDS011;9118;48.122;11.546;2023-02-17T05:26:06;6.47;;;4.00;;
17985;SDS011;9118;48.122;11.546;2023-02-17T05:28:34;7.53;;;4.00;;
17985;SDS011;9118;48.122;11.546;2023-02-17T05:31:02;9.63;;;4.43;;
17985;SDS011;9118;48.122;11.546;2023-02-17T05:33:32;7.20;;;4.17;;
17985;SDS011;9118;48.122;11.546;2023-02-17T05:36:03;7.27;;;3.83;;
17985;SDS011;9118;48.122;11.546;2023-02-17T05:38:38;16.60;;;5.63;;
17985;SDS011;9118;48.122;11.546;2023-02-17T05:41:20;5.07;;;4.20;;
17985;SDS011;9118;48.122;11.546;2023-02-17T05:43:48;11.77;;;4.07;;
17985;SDS011;9118;48.122;11.546;2023-02-17T05:46:15;5.37;;;3.93;;
17985;SDS011;9118;48.122;11.546;2023-02-17T05:48:42;5.23;;;4.13;;
17985;SDS011;9118;48.122;11.546;2023-02-17T05:51:10;7.33;;;4.20;;
17985;SDS011;9118;48.122;11.546;2023-02-17T05:54:01;7.00;;;4.20;;
17985;SDS011;9118;48.122;11.546;2023-02-17T05:56:28;6.77;;;3.97;;
17985;SDS011;9118;48.122;11.546;2023-02-17T05:58:56;6.00;;;3.70;;
17985;SDS011;9118;48.122;11.546;2023-02-17T06:01:41;5.63;;;3.80;;
17985;SDS011;9118;48.122;11.546;2023-02-17T06:04:10;14.67;;;4.23;;
17985;SDS011;9118;48.122;11.546;2023-02-17T06:06:40;6.77;;;3.83;;
17985;SDS011;9118;48.122;11.546;2023-02-17T06:09:12;7.87;;;3.60;;
17985;SDS011;9118;48.122;11.546;2023-02-17T06:11:40;6.87;;;3.70;;
17985;SDS011;9118;48.122;11.546;2023-02-17T06:14:07;5.67;;;4.03;;
17985;SDS011;9118;48.122;11.546;2023-02-17T06:16:35;8.10;;;3.90;;
17985;SDS011;9118;48.122;11.546;2023-02-17T06:19:06;8.93;;;4.40;;
17985;SDS011;9118;48.122;11.546;2023-02-17T06:21:35;6.20;;;3.80;;
17985;SDS011;9118;48.122;11.546;2023-02-17T06:24:12;6.77;;;3.93;;
17985;SDS011;9118;48.122;11.546;2023-02-17T06:26:39;8.30;;;3.20;;
17985;SDS011;9118;48.122;11.546;2023-02-17T06:29:09;3.83;;;3.43;;
17985;SDS011;9118;48.122;11.546;2023-02-17T06:31:37;7.07;;;3.70;;
17985;SDS011;9118;48.122;11.546;2023-02-17T06:34:05;8.80;;;3.90;;
17985;SDS011;9118;48.122;11.546;2023-02-17T06:36:34;7.33;;;3.87;;
17985;SDS011;9118;48.122;11.546;2023-02-17T06:39:04;7.03;;;3.93;;
17985;SDS011;9118;48.122;11.546;2023-02-17T06:41:35;7.33;;;3.50;;
17985;SDS011;9118;48.122;11.546;2023-02-17T06:44:11;7.77;;;3.80;;
17985;SDS011;9118;48.122;11.546;2023-02-17T06:46:41;5.23;;;3.17;;
17985;SDS011;9118;48.122;11.546;2023-02-17T06:49:11;7.17;;;3.87;;
17985;SDS011;9118;48.122;11.546;2023-02-17T06:51:39;8.47;;;3.23;;
17985;SDS011;9118;48.122;11.546;2023-02-17T06:54:06;5.40;;;3.77;;
17985;SDS011;9118;48.122;11.546;2023-02-17T06:56:51;7.73;;;3.77;;
17985;SDS011;9118;48.122;11.546;2023-02-17T06:59:19;5.60;;;3.60;;
17985;SDS011;9118;48.122;11.546;2023-02-17T07:01:50;5.63;;;3.37;;
17985;SDS011;9118;48.122;11.546;2023-02-17T07:04:17;6.67;;;3.40;;
17985;SDS011;9118;48.122;11.546;2023-02-17T07:06:45;7.87;;;3.93;;
17985;SDS011;9118;48.122;11.546;2023-02-17T07:09:12;7.63;;;3.63;;
17985;SDS011;9118;48.122;11.546;2023-02-17T07:11:39;13.43;;;3.13;;
17985;SDS011;9118;48.122;11.546;2023-02-17T07:14:10;7.83;;;3.20;;
17985;SDS011;9118;48.122;11.546;2023-02-17T07:16:39;5.83;;;3.07;;
17985;SDS011;9118;48.122;11.546;2023-02-17T07:19:06;6.67;;;3.10;;
17985;SDS011;9118;48.122;11.546;2023-02-17T07:21:34;6.30;;;3.33;;
17985;SDS011;9118;48.122;11.546;2023-02-17T07:24:01;11.80;;;3.37;;
17985;SDS011;9118;48.122;11.546;2023-02-17T07:26:28;13.73;;;4.27;;
17985;SDS011;9118;48.122;11.546;2023-02-17T07:28:57;7.87;;;3.33;;
17985;SDS011;9118;48.122;11.546;2023-02-17T07:31:27;8.63;;;3.30;;
17985;SDS011;9118;48.122;11.546;2023-02-17T07:33:54;10.13;;;3.20;;
17985;SDS011;9118;48.122;11.546;2023-02-17T07:36:21;7.87;;;4.27;;
17985;SDS011;9118;48.122;11.546;2023-02-17T07:38:49;5.77;;;2.83;;
17985;SDS011;9118;48.122;11.546;2023-02-17T07:41:25;8.47;;;3.27;;
17985;SDS011;9118;48.122;11.546;2023-02-17T07:43:55;8.93;;;3.50;;
17985;SDS011;9118;48.122;11.546;2023-02-17T07:46:24;11.00;;;3.70;;
17985;SDS011;9118;48.122;11.546;2023-02-17T07:48:55;9.80;;;3.50;;
17985;SDS011;9118;48.122;11.546;2023-02-17T07:51:23;7.83;;;3.63;;
17985;SDS011;9118;48.122;11.546;2023-02-17T07:53:51;8.77;;;3.77;;
17985;SDS011;9118;48.122;11.546;2023-02-17T07:56:19;12.23;;;3.70;;
17985;SDS011;9118;48.122;11.546;2023-02-17T07:58:47;7.63;;;3.13;;
17985;SDS011;9118;48.122;11.546;2023-02-17T08:01:18;11.03;;;3.70;;
17985;SDS011;9118;48.122;11.546;2023-02-17T08:03:54;8.00;;;3.73;;
17985;SDS011;9118;48.122;11.546;2023-02-17T08:06:23;13.10;;;3.70;;
17985;SDS011;9118;48.122;11.546;2023-02-17T08:08:53;9.60;;;3.07;;
17985;SDS011;9118;48.122;11.546;2023-02-17T08:11:38;10.93;;;3.27;;
17985;SDS011;9118;48.122;11.546;2023-02-17T08:14:24;8.47;;;3.00;;
17985;SDS011;9118;48.122;11.546;2023-02-17T08:17:06;6.10;;;3.23;;
17985;SDS011;9118;48.122;11.546;2023-02-17T08:19:36;9.20;;;3.70;;
17985;SDS011;9118;48.122;11.546;2023-02-17T08:22:05;6.63;;;3.50;;
17985;SDS011;9118;48.122;11.546;2023-02-17T08:24:35;10.63;;;3.50;;
17985;SDS011;9118;48.122;11.546;2023-02-17T08:27:03;10.37;;;3.47;;
17985;SDS011;9118;48.122;11.546;2023-02-17T08:29:31;7.77;;;3.73;;
17985;SDS011;9118;48.122;11.546;2023-02-17T08:31:58;13.10;;;3.60;;
17985;SDS011;9118;48.122;11.546;2023-02-17T08:34:30;11.03;;;3.97;;
17985;SDS011;9118;48.122;11.546;2023-02-17T08:37:12;7.57;;;3.43;;
17985;SDS011;9118;48.122;11.546;2023-02-17T08:39:39;9.97;;;3.37;;
17985;SDS011;9118;48.122;11.546;2023-02-17T08:42:07;8.77;;;3.33;;
17985;SDS011;9118;48.122;11.546;2023-02-17T08:44:36;8.90;;;3.17;;
17985;SDS011;9118;48.122;11.546;2023-02-17T08:47:04;9.20;;;3.57;;
17985;SDS011;9118;48.122;11.546;2023-02-17T08:49:34;11.83;;;3.03;;
17985;SDS011;9118;48.122;11.546;2023-02-17T08:52:06;9.70;;;3.63;;
17985;SDS011;9118;48.122;11.546;2023-02-17T08:54:35;8.20;;;3.13;;
17985;SDS011;9118;48.122;11.546;2023-02-17T08:57:03;10.10;;;3.17;;
17985;SDS011;9118;48.122;11.546;2023-02-17T08:59:31;7.43;;;3.10;;
17985;SDS011;9118;48.122;11.546;2023-02-17T09:01:59;10.70;;;4.00;;
17985;SDS011;9118;48.122;11.546;2023-02-17T09:04:27;8.80;;;3.17;;
17985;SDS011;9118;48.122;11.546;2023-02-17T09:06:58;10.80;;;3.53;;
17985;SDS011;9118;48.122;11.546;2023-02-17T09:09:26;8.73;;;4.50;;
17985;SDS011;9118;48.122;11.546;2023-02-17T09:11:56;9.50;;;3.60;;
17985;SDS011;9118;48.122;11.546;2023-02-17T09:14:23;7.23;;;3.10;;
17985;SDS011;9118;48.122;11.546;2023-02-17T09:16:52;7.90;;;3.50;;
17985;SDS011;9118;48.122;11.546;2023-02-17T09:19:21;9.57;;;3.70;;
17985;SDS011;9118;48.122;11.546;2023-02-17T09:21:51;9.40;;;3.93;;
17985;SDS011;9118;48.122;11.546;2023-02-17T09:24:20;6.10;;;3.43;;
17985;SDS011;9118;48.122;11.546;2023-02-17T09:26:47;7.33;;;3.77;;
17985;SDS011;9118;48.122;11.546;2023-02-17T09:29:17;10.03;;;4.30;;
17985;SDS011;9118;48.122;11.546;2023-02-17T09:31:44;9.07;;;3.73;;
17985;SDS011;9118;48.122;11.546;2023-02-17T09:34:11;9.30;;;3.97;;
17985;SDS011;9118;48.122;11.546;2023-02-17T09:36:41;7.63;;;3.70;;
17985;SDS011;9118;48.122;11.546;2023-02-17T09:39:08;6.17;;;3.70;;
17985;SDS011;9118;48.122;11.546;2023-02-17T09:41:38;9.03;;;4.37;;
17985;SDS011;9118;48.122;11.546;2023-02-17T09:44:13;7.53;;;3.60;;
17985;SDS011;9118;48.122;11.546;2023-02-17T09:46:47;6.87;;;3.90;;
17985;SDS011;9118;48.122;11.546;2023-02-17T09:49:21;6.90;;;4.00;;
17985;SDS011;9118;48.122;11.546;2023-02-17T09:51:53;7.37;;;3.90;;
17985;SDS011;9118;48.122;11.546;2023-02-17T09:54:28;8.73;;;3.57;;
17985;SDS011;9118;48.122;11.546;2023-02-17T09:57:02;8.70;;;3.50;;
17985;SDS011;9118;48.122;11.546;2023-02-17T09:59:35;9.13;;;3.60;;
17985;SDS011;9118;48.122;11.546;2023-02-17T10:02:12;8.27;;;4.17;;
17985;SDS011;9118;48.122;11.546;2023-02-17T10:04:43;10.03;;;3.93;;
17985;SDS011;9118;48.122;11.546;2023-02-17T10:07:16;6.60;;;3.53;;
17985;SDS011;9118;48.122;11.546;2023-02-17T10:09:48;7.40;;;3.60;;
17985;SDS011;9118;48.122;11.546;2023-02-17T10:12:19;7.23;;;4.03;;
17985;SDS011;9118;48.122;11.546;2023-02-17T10:14:56;7.63;;;3.57;;
17985;SDS011;9118;48.122;11.546;2023-02-17T10:17:28;6.17;;;3.50;;
17985;SDS011;9118;48.122;11.546;2023-02-17T10:20:02;8.87;;;3.97;;
17985;SDS011;9118;48.122;11.546;2023-02-17T10:22:33;6.30;;;3.90;;
17985;SDS011;9118;48.122;11.546;2023-02-17T10:25:01;13.63;;;4.33;;
17985;SDS011;9118;48.122;11.546;2023-02-17T10:27:40;8.97;;;3.40;;
17985;SDS011;9118;48.122;11.546;2023-02-17T10:30:22;9.17;;;3.60;;
17985;SDS011;9118;48.122;11.546;2023-02-17T10:32:58;11.03;;;3.53;;
17985;SDS011;9118;48.122;11.546;2023-02-17T10:35:29;9.50;;;3.50;;
17985;SDS011;9118;48.122;11.546;2023-02-17T10:38:10;11.70;;;3.50;;
17985;SDS011;9118;48.122;11.546;2023-02-17T10:40:44;10.13;;;3.33;;
17985;SDS011;9118;48.122;11.546;2023-02-17T10:43:19;6.80;;;3.20;;
17985;SDS011;9118;48.122;11.546;2023-02-17T10:45:55;11.00;;;3.40;;
17985;SDS011;9118;48.122;11.546;2023-02-17T10:48:31;7.17;;;3.27;;
17985;SDS011;9118;48.122;11.546;2023-02-17T10:51:02;8.43;;;3.20;;
17985;SDS011;9118;48.122;11.546;2023-02-17T10:53:37;5.43;;;3.17;;
17985;SDS011;9118;48.122;11.546;2023-02-17T10:56:07;10.00;;;3.30;;
17985;SDS011;9118;48.122;11.546;2023-02-17T10:58:39;6.47;;;3.60;;
17985;SDS011;9118;48.122;11.546;2023-02-17T11:01:15;8.10;;;3.10;;
17985;SDS011;9118;48.122;11.546;2023-02-17T11:03:43;4.57;;;2.87;;
17985;SDS011;9118;48.122;11.546;2023-02-17T11:06:14;7.40;;;3.67;;
17985;SDS011;9118;48.122;11.546;2023-02-17T11:08:58;6.90;;;3.23;;
17985;SDS011;9118;48.122;11.546;2023-02-17T11:11:29;7.70;;;3.43;;
17985;SDS011;9118;48.122;11.546;2023-02-17T11:14:00;8.43;;;4.10;;
17985;SDS011;9118;48.122;11.546;2023-02-17T11:16:34;8.50;;;4.27;;
17985;SDS011;9118;48.122;11.546;2023-02-17T11:19:03;7.60;;;3.17;;
17985;SDS011;9118;48.122;11.546;2023-02-17T11:21:41;4.97;;;3.27;;
17985;SDS011;9118;48.122;11.546;2023-02-17T11:24:09;6.80;;;3.00;;
17985;SDS011;9118;48.122;11.546;2023-02-17T11:26:37;7.73;;;3.80;;
17985;SDS011;9118;48.122;11.546;2023-02-17T11:29:06;6.20;;;3.50;;
17985;SDS011;9118;48.122;11.546;2023-02-17T11:31:35;9.13;;;3.40;;
17985;SDS011;9118;48.122;11.546;2023-02-17T11:34:13;9.50;;;3.33;;
17985;SDS011;9118;48.122;11.546;2023-02-17T11:36:46;5.97;;;3.10;;
17985;SDS011;9118;48.122;11.546;2023-02-17T11:39:24;10.33;;;3.20;;
17985;SDS011;9118;48.122;11.546;2023-02-17T11:41:58;7.97;;;3.00;;
17985;SDS011;9118;48.122;11.546;2023-02-17T11:44:26;7.03;;;3.47;;
17985;SDS011;9118;48.122;11.546;2023-02-17T11:47:03;6.20;;;3.10;;
17985;SDS011;9118;48.122;11.546;2023-02-17T11:52:27;6.57;;;2.97;;
17985;SDS011;9118;48.122;11.546;2023-02-17T11:55:10;8.37;;;3.30;;
17985;SDS011;9118;48.122;11.546;2023-02-17T11:57:57;7.23;;;2.70;;
17985;SDS011;9118;48.122;11.546;2023-02-17T12:00:43;5.43;;;3.10;;
17985;SDS011;9118;48.122;11.546;2023-02-17T12:09:07;7.67;;;2.80;;
17985;SDS011;9118;48.122;11.546;2023-02-17T12:11:42;8.27;;;3.20;;
17985;SDS011;9118;48.122;11.546;2023-02-17T12:17:12;5.20;;;2.90;;
17985;SDS011;9118;48.122;11.546;2023-02-17T12:19:50;8.40;;;3.50;;
17985;SDS011;9118;48.122;11.546;2023-02-17T12:22:39;11.83;;;3.50;;
17985;SDS011;9118;48.122;11.546;2023-02-17T12:28:08;5.83;;;2.70;;
17985;SDS011;9118;48.122;11.546;2023-02-17T12:30:59;6.07;;;2.60;;
17985;SDS011;9118;48.122;11.546;2023-02-17T12:33:50;3.83;;;2.50;;
17985;SDS011;9118;48.122;11.546;2023-02-17T12:36:37;13.53;;;3.30;;
17985;SDS011;9118;48.122;11.546;2023-02-17T12:39:21;4.60;;;2.80;;
17985;SDS011;9118;48.122;11.546;2023-02-17T12:41:52;4.70;;;3.07;;
17985;SDS011;9118;48.122;11.546;2023-02-17T12:44:25;6.33;;;2.80;;
17985;SDS011;9118;48.122;11.546;2023-02-17T12:46:56;5.23;;;2.63;;
17985;SDS011;9118;48.122;11.546;2023-02-17T12:49:26;4.90;;;2.70;;
17985;SDS011;9118;48.122;11.546;2023-02-17T12:51:59;4.57;;;2.47;;
17985;SDS011;9118;48.122;11.546;2023-02-17T12:54:35;3.70;;;2.50;;
17985;SDS011;9118;48.122;11.546;2023-02-17T12:57:18;4.13;;;2.83;;
17985;SDS011;9118;48.122;11.546;2023-02-17T12:59:50;4.03;;;2.70;;
17985;SDS011;9118;48.122;11.546;2023-02-17T13:02:19;8.67;;;2.90;;
17985;SDS011;9118;48.122;11.546;2023-02-17T13:04:49;6.03;;;3.00;;
17985;SDS011;9118;48.122;11.546;2023-02-17T13:07:23;6.80;;;2.87;;
17985;SDS011;9118;48.122;11.546;2023-02-17T13:10:19;6.60;;;2.83;;
17985;SDS011;9118;48.122;11.546;2023-02-17T13:12:59;5.07;;;3.00;;
17985;SDS011;9118;48.122;11.546;2023-02-17T13:15:30;6.53;;;3.10;;
17985;SDS011;9118;48.122;11.546;2023-02-17T13:18:03;5.30;;;3.20;;
17985;SDS011;9118;48.122;11.546;2023-02-17T13:23:34;5.93;;;3.13;;
17985;SDS011;9118;48.122;11.546;2023-02-17T13:32:00;4.87;;;2.70;;
17985;SDS011;9118;48.122;11.546;2023-02-17T13:34:30;5.63;;;2.83;;
17985;SDS011;9118;48.122;11.546;2023-02-17T13:36:59;6.40;;;3.03;;
17985;SDS011;9118;48.122;11.546;2023-02-17T13:39:33;6.10;;;3.57;;
17985;SDS011;9118;48.122;11.546;2023-02-17T13:42:02;4.10;;;2.80;;
17985;SDS011;9118;48.122;11.546;2023-02-17T13:44:53;8.83;;;2.93;;
17985;SDS011;9118;48.122;11.546;2023-02-17T13:47:21;4.30;;;3.03;;
17985;SDS011;9118;48.122;11.546;2023-02-17T13:49:55;5.77;;;2.70;;
17985;SDS011;9118;48.122;11.546;2023-02-17T13:52:23;7.50;;;3.40;;
17985;SDS011;9118;48.122;11.546;2023-02-17T13:54:54;4.83;;;2.40;;
17985;SDS011;9118;48.122;11.546;2023-02-17T13:57:23;5.33;;;3.00;;
17985;SDS011;9118;48.122;11.546;2023-02-17T14:00:02;5.00;;;2.60;;
17985;SDS011;9118;48.122;11.546;2023-02-17T14:02:31;4.27;;;2.67;;
17985;SDS011;9118;48.122;11.546;2023-02-17T14:04:59;5.93;;;2.80;;
17985;SDS011;9118;48.122;11.546;2023-02-17T14:07:32;3.60;;;2.80;;
17985;SDS011;9118;48.122;11.546;2023-02-17T14:10:00;4.43;;;2.50;;
17985;SDS011;9118;48.122;11.546;2023-02-17T14:12:27;4.47;;;2.50;;
17985;SDS011;9118;48.122;11.546;2023-02-17T14:14:56;3.63;;;2.40;;
17985;SDS011;9118;48.122;11.546;2023-02-17T14:17:27;3.13;;;2.57;;
17985;SDS011;9118;48.122;11.546;2023-02-17T14:19:56;3.73;;;2.90;;
17985;SDS011;9118;48.122;11.546;2023-02-17T14:22:26;5.63;;;2.93;;
17985;SDS011;9118;48.122;11.546;2023-02-17T14:24:58;6.43;;;2.90;;
17985;SDS011;9118;48.122;11.546;2023-02-17T14:27:26;5.43;;;3.27;;
17985;SDS011;9118;48.122;11.546;2023-02-17T14:29:53;4.27;;;2.47;;
17985;SDS011;9118;48.122;11.546;2023-02-17T14:32:26;7.87;;;3.47;;
17985;SDS011;9118;48.122;11.546;2023-02-17T14:35:04;4.47;;;2.40;;
17985;SDS011;9118;48.122;11.546;2023-02-17T14:37:33;3.53;;;2.57;;
17985;SDS011;9118;48.122;11.546;2023-02-17T14:40:01;3.70;;;2.70;;
17985;SDS011;9118;48.122;11.546;2023-02-17T14:42:28;5.23;;;2.70;;
17985;SDS011;9118;48.122;11.546;2023-02-17T14:44:59;4.27;;;2.50;;
17985;SDS011;9118;48.122;11.546;2023-02-17T14:47:27;5.50;;;2.63;;
17985;SDS011;9118;48.122;11.546;2023-02-17T14:49:54;6.50;;;2.57;;
17985;SDS011;9118;48.122;11.546;2023-02-17T14:52:23;5.70;;;2.87;;
17985;SDS011;9118;48.122;11.546;2023-02-17T14:55:01;4.53;;;2.30;;
17985;SDS011;9118;48.122;11.546;2023-02-17T15:04:02;5.67;;;2.70;;
17985;SDS011;9118;48.122;11.546;2023-02-17T15:06:31;3.53;;;2.17;;
17985;SDS011;9118;48.122;11.546;2023-02-17T15:09:07;5.63;;;2.90;;
17985;SDS011;9118;48.122;11.546;2023-02-17T15:11:36;4.90;;;2.60;;
17985;SDS011;9118;48.122;11.546;2023-02-17T15:14:10;4.17;;;2.80;;
17985;SDS011;9118;48.122;11.546;2023-02-17T15:16:45;4.70;;;2.47;;
17985;SDS011;9118;48.122;11.546;2023-02-17T15:19:16;5.03;;;3.00;;
17985;SDS011;9118;48.122;11.546;2023-02-17T15:21:49;3.60;;;2.23;;
17985;SDS011;9118;48.122;11.546;2023-02-17T15:24:30;3.63;;;2.20;;
17985;SDS011;9118;48.122;11.546;2023-02-17T15:27:02;4.57;;;3.10;;
17985;SDS011;9118;48.122;11.546;2023-02-17T15:29:36;6.70;;;3.10;;
17985;SDS011;9118;48.122;11.546;2023-02-17T15:32:18;4.20;;;2.63;;
17985;SDS011;9118;48.122;11.546;2023-02-17T15:37:46;7.10;;;3.27;;
17985;SDS011;9118;48.122;11.546;2023-02-17T15:40:27;4.90;;;2.70;;
17985;SDS011;9118;48.122;11.546;2023-02-17T15:43:17;5.80;;;3.00;;
17985;SDS011;9118;48.122;11.546;2023-02-17T15:45:59;7.37;;;2.77;;
17985;SDS011;9118;48.122;11.546;2023-02-17T15:48:38;3.43;;;2.43;;
17985;SDS011;9118;48.122;11.546;2023-02-17T16:00:45;4.97;;;3.00;;
17985;SDS011;9118;48.122;11.546;2023-02-17T16:03:17;3.87;;;2.30;;
17985;SDS011;9118;48.122;11.546;2023-02-17T16:05:48;4.73;;;2.50;;
17985;SDS011;9118;48.122;11.546;2023-02-17T16:08:18;4.30;;;2.90;;
17985;SDS011;9118;48.122;11.546;2023-02-17T16:10:55;3.03;;;2.27;;
17985;SDS011;9118;48.122;11.546;2023-02-17T16:13:38;5.13;;;2.40;;